createdAt,value
2018-01-10T00:00:56.290Z,1007.52
2018-01-10T00:01:56.279Z,1007.55
2018-01-10T00:02:56.328Z,1007.59
2018-01-10T00:03:56.308Z,1007.66
2018-01-10T00:04:56.324Z,1007.74
2018-01-10T00:05:56.332Z,1007.75
2018-01-10T00:06:56.355Z,1007.83
2018-01-10T00:07:56.367Z,1007.83
2018-01-10T00:08:56.375Z,1007.89
2018-01-10T00:09:56.392Z,1007.90
2018-01-10T00:10:56.396Z,1007.90
2018-01-10T00:11:56.404Z,1007.95
2018-01-10T00:12:56.421Z,1007.92
2018-01-10T00:13:56.441Z,1007.97
2018-01-10T00:14:56.451Z,1007.98
2018-01-10T00:15:56.465Z,1007.96
2018-01-10T00:16:56.475Z,1007.95
2018-01-10T00:17:56.484Z,1007.91
2018-01-10T00:18:56.511Z,1007.93
2018-01-10T00:19:56.523Z,1007.96
2018-01-10T00:20:56.522Z,1007.92
2018-01-10T00:21:56.546Z,1007.91
2018-01-10T00:22:56.553Z,1007.92
2018-01-10T00:23:56.561Z,1007.94
2018-01-10T00:24:56.583Z,1007.93
2018-01-10T00:25:56.598Z,1007.91
2018-01-10T00:26:56.600Z,1007.88
2018-01-10T00:27:56.623Z,1007.83
2018-01-10T00:28:56.638Z,1007.80
2018-01-10T00:29:56.641Z,1007.84
2018-01-10T00:30:56.667Z,1007.81
2018-01-10T00:31:56.670Z,1007.84
2018-01-10T00:32:56.686Z,1007.79
2018-01-10T00:33:56.700Z,1007.80
2018-01-10T00:34:56.712Z,1007.70
2018-01-10T00:35:56.718Z,1007.74
2018-01-10T00:36:56.739Z,1007.75
2018-01-10T00:37:56.750Z,1007.71
2018-01-10T00:38:56.764Z,1007.69
2018-01-10T00:39:56.778Z,1007.58
2018-01-10T00:40:56.789Z,1007.52
2018-01-10T00:41:56.803Z,1007.53
2018-01-10T00:42:56.819Z,1007.47
2018-01-10T00:43:56.827Z,1007.48
2018-01-10T00:44:56.843Z,1007.48
2018-01-10T00:45:56.876Z,1007.48
2018-01-10T00:46:56.865Z,1007.54
2018-01-10T00:47:56.876Z,1007.57
2018-01-10T00:48:56.903Z,1007.67
2018-01-10T00:49:56.912Z,1007.70
2018-01-10T00:50:56.913Z,1007.72
2018-01-10T00:51:56.941Z,1007.73
2018-01-10T00:52:56.943Z,1007.72
2018-01-10T00:53:56.954Z,1007.71
2018-01-10T00:54:56.964Z,1007.70
2018-01-10T00:55:56.984Z,1007.67
2018-01-10T00:56:56.992Z,1007.66
2018-01-10T00:57:57.016Z,1007.66
2018-01-10T00:58:57.023Z,1007.67
2018-01-10T00:59:57.037Z,1007.69
2018-01-10T01:00:57.044Z,1007.71
2018-01-10T01:01:57.068Z,1007.71
2018-01-10T01:02:57.077Z,1007.74
2018-01-10T01:03:57.091Z,1007.71
2018-01-10T01:04:57.096Z,1007.75
2018-01-10T01:05:57.109Z,1007.77
2018-01-10T01:06:57.130Z,1007.80
2018-01-10T01:07:57.140Z,1007.78
2018-01-10T01:08:57.156Z,1007.73
2018-01-10T01:09:57.163Z,1007.74
2018-01-10T01:10:57.170Z,1007.74
2018-01-10T01:11:57.195Z,1007.80
2018-01-10T01:12:57.197Z,1007.80
2018-01-10T01:13:57.213Z,1007.77
2018-01-10T01:14:57.221Z,1007.75
2018-01-10T01:15:57.243Z,1007.81
2018-01-10T01:16:57.245Z,1007.82
2018-01-10T01:17:57.554Z,1007.76
2018-01-10T01:18:57.282Z,1007.78
2018-01-10T01:19:57.286Z,1007.73
2018-01-10T01:20:57.294Z,1007.68
2018-01-10T01:21:57.303Z,1007.62
2018-01-10T01:22:57.331Z,1007.64
2018-01-10T01:23:57.333Z,1007.59
2018-01-10T01:24:57.387Z,1007.58
2018-01-10T01:25:57.381Z,1007.49
2018-01-10T01:26:57.371Z,1007.42
2018-01-10T01:27:57.387Z,1007.37
2018-01-10T01:28:57.397Z,1007.36
2018-01-10T01:29:57.411Z,1007.36
2018-01-10T01:30:57.439Z,1007.36
2018-01-10T01:31:57.436Z,1007.32
2018-01-10T01:32:57.456Z,1007.35
2018-01-10T01:33:57.468Z,1007.36
2018-01-10T01:34:57.469Z,1007.36
2018-01-10T01:35:57.496Z,1007.34
2018-01-10T01:36:57.498Z,1007.39
2018-01-10T01:37:57.507Z,1007.41
2018-01-10T01:38:57.518Z,1007.43
2018-01-10T01:39:57.544Z,1007.43
2018-01-10T01:40:57.550Z,1007.49
2018-01-10T01:41:57.562Z,1007.47
2018-01-10T01:42:57.877Z,1007.48
2018-01-10T01:43:57.586Z,1007.46
2018-01-10T01:44:57.594Z,1007.47
2018-01-10T01:45:57.615Z,1007.46
2018-01-10T01:46:57.624Z,1007.45
2018-01-10T01:47:57.633Z,1007.49
2018-01-10T01:48:57.648Z,1007.53
2018-01-10T01:49:57.664Z,1007.53
2018-01-10T01:50:57.672Z,1007.51
2018-01-10T01:51:57.688Z,1007.57
2018-01-10T01:52:57.690Z,1007.54
2018-01-10T01:53:57.718Z,1007.55
2018-01-10T01:54:57.721Z,1007.56
2018-01-10T01:55:57.729Z,1007.57
2018-01-10T01:56:57.751Z,1007.53
2018-01-10T01:57:57.766Z,1007.53
2018-01-10T01:58:57.775Z,1007.58
2018-01-10T01:59:57.778Z,1007.65
2018-01-10T02:00:57.800Z,1007.62
2018-01-10T02:01:57.807Z,1007.60
2018-01-10T02:02:58.118Z,1007.60
2018-01-10T02:03:57.826Z,1007.59
2018-01-10T02:04:57.847Z,1007.56
2018-01-10T02:05:57.857Z,1007.57
2018-01-10T02:06:57.872Z,1007.57
2018-01-10T02:07:57.880Z,1007.65
2018-01-10T02:08:57.901Z,1007.66
2018-01-10T02:09:57.911Z,1007.67
2018-01-10T02:10:57.920Z,1007.62
2018-01-10T02:11:57.929Z,1007.58
2018-01-10T02:12:57.943Z,1007.59
2018-01-10T02:13:57.959Z,1007.56
2018-01-10T02:14:57.961Z,1007.53
2018-01-10T02:15:57.971Z,1007.52
2018-01-10T02:16:57.990Z,1007.49
2018-01-10T02:17:58.305Z,1007.47
2018-01-10T02:18:58.010Z,1007.41
2018-01-10T02:19:58.038Z,1007.37
2018-01-10T02:20:58.040Z,1007.35
2018-01-10T02:21:58.049Z,1007.34
2018-01-10T02:22:58.057Z,1007.35
2018-01-10T02:23:58.066Z,1007.35
2018-01-10T02:24:58.088Z,1007.36
2018-01-10T02:25:58.097Z,1007.41
2018-01-10T02:26:58.106Z,1007.39
2018-01-10T02:27:58.113Z,1007.39
2018-01-10T02:28:58.123Z,1007.35
2018-01-10T02:29:58.151Z,1007.36
2018-01-10T02:30:58.157Z,1007.28
2018-01-10T02:31:58.163Z,1007.25
2018-01-10T02:32:58.172Z,1007.27
2018-01-10T02:33:58.191Z,1007.23
2018-01-10T02:34:58.208Z,1007.26
2018-01-10T02:35:58.211Z,1007.23
2018-01-10T02:36:58.219Z,1007.21
2018-01-10T02:37:58.247Z,1007.21
2018-01-10T02:38:58.257Z,1007.27
2018-01-10T02:39:58.265Z,1007.30
2018-01-10T02:40:58.275Z,1007.34
2018-01-10T02:41:58.289Z,1007.40
2018-01-10T02:42:58.598Z,1007.45
2018-01-10T02:43:58.308Z,1007.44
2018-01-10T02:44:58.322Z,1007.40
2018-01-10T02:45:58.340Z,1007.43
2018-01-10T02:46:58.347Z,1007.37
2018-01-10T02:47:58.355Z,1007.35
2018-01-10T02:48:58.375Z,1007.31
2018-01-10T02:49:58.384Z,1007.31
2018-01-10T02:50:58.396Z,1007.30
2018-01-10T02:51:58.405Z,1007.29
2018-01-10T02:52:58.412Z,1007.31
2018-01-10T02:53:58.434Z,1007.33
2018-01-10T02:54:58.448Z,1007.34
2018-01-10T02:55:58.452Z,1007.30
2018-01-10T02:56:58.460Z,1007.31
2018-01-10T02:57:58.789Z,1007.38
2018-01-10T02:58:58.499Z,1007.32
2018-01-10T02:59:58.499Z,1007.39
2018-01-10T03:00:58.509Z,1007.41
2018-01-10T03:01:58.530Z,1007.39
2018-01-10T03:02:58.538Z,1007.36
2018-01-10T03:03:58.547Z,1007.38
2018-01-10T03:04:58.556Z,1007.35
2018-01-10T03:05:58.589Z,1007.40
2018-01-10T03:06:58.587Z,1007.38
2018-01-10T03:07:58.602Z,1007.43
2018-01-10T03:08:58.604Z,1007.41
2018-01-10T03:09:58.626Z,1007.43
2018-01-10T03:10:58.647Z,1007.42
2018-01-10T03:11:58.643Z,1007.43
2018-01-10T03:12:58.653Z,1007.44
2018-01-10T03:13:58.675Z,1007.46
2018-01-10T03:14:58.689Z,1007.52
2018-01-10T03:15:58.690Z,1007.52
2018-01-10T03:16:58.712Z,1007.54
2018-01-10T03:17:59.028Z,1007.58
2018-01-10T03:18:58.744Z,1007.55
2018-01-10T03:19:58.739Z,1007.55
2018-01-10T03:20:58.761Z,1007.59
2018-01-10T03:21:58.770Z,1007.63
2018-01-10T03:22:58.779Z,1007.56
2018-01-10T03:23:58.795Z,1007.59
2018-01-10T03:24:58.808Z,1007.61
2018-01-10T03:25:58.818Z,1007.64
2018-01-10T03:26:58.828Z,1007.67
2018-01-10T03:27:58.848Z,1007.69
2018-01-10T03:28:58.866Z,1007.70
2018-01-10T03:29:58.866Z,1007.73
2018-01-10T03:30:58.883Z,1007.70
2018-01-10T03:31:58.897Z,1007.68
2018-01-10T03:32:58.911Z,1007.69
2018-01-10T03:33:58.914Z,1007.73
2018-01-10T03:34:58.931Z,1007.74
2018-01-10T03:35:58.951Z,1007.77
2018-01-10T03:36:58.962Z,1007.75
2018-01-10T03:37:59.262Z,1007.74
2018-01-10T03:38:58.990Z,1007.73
2018-01-10T03:39:58.994Z,1007.68
2018-01-10T03:40:59.008Z,1007.67
2018-01-10T03:41:59.029Z,1007.69
2018-01-10T03:42:59.037Z,1007.67
2018-01-10T03:43:59.040Z,1007.68
2018-01-10T03:44:59.056Z,1007.69
2018-01-10T03:45:59.071Z,1007.68
2018-01-10T03:46:59.079Z,1007.69
2018-01-10T03:47:59.095Z,1007.65
2018-01-10T03:48:59.103Z,1007.67
2018-01-10T03:49:59.120Z,1007.66
2018-01-10T03:50:59.134Z,1007.64
2018-01-10T03:51:59.139Z,1007.68
2018-01-10T03:52:59.165Z,1007.69
2018-01-10T03:53:59.168Z,1007.65
2018-01-10T03:54:59.182Z,1007.65
2018-01-10T03:55:59.185Z,1007.66
2018-01-10T03:56:59.213Z,1007.64
2018-01-10T03:57:59.523Z,1007.63
2018-01-10T03:58:59.224Z,1007.56
2018-01-10T03:59:59.247Z,1007.55
2018-01-10T04:00:59.260Z,1007.53
2018-01-10T04:01:59.263Z,1007.53
2018-01-10T04:02:59.273Z,1007.53
2018-01-10T04:03:59.305Z,1007.49
2018-01-10T04:04:59.303Z,1007.53
2018-01-10T04:05:59.310Z,1007.49
2018-01-10T04:06:59.332Z,1007.52
2018-01-10T04:07:59.342Z,1007.50
2018-01-10T04:08:59.350Z,1007.49
2018-01-10T04:09:59.379Z,1007.47
2018-01-10T04:10:59.387Z,1007.49
2018-01-10T04:11:59.389Z,1007.47
2018-01-10T04:12:59.399Z,1007.46
2018-01-10T04:13:59.424Z,1007.44
2018-01-10T04:14:59.434Z,1007.38
2018-01-10T04:15:59.444Z,1007.40
2018-01-10T04:16:59.459Z,1007.38
2018-01-10T04:17:59.474Z,1007.36
2018-01-10T04:18:59.477Z,1007.34
2018-01-10T04:19:59.498Z,1007.38
2018-01-10T04:20:59.508Z,1007.39
2018-01-10T04:21:59.526Z,1007.38
2018-01-10T04:22:59.538Z,1007.41
2018-01-10T04:23:59.553Z,1007.44
2018-01-10T04:24:59.555Z,1007.49
2018-01-10T04:25:59.571Z,1007.52
2018-01-10T04:26:59.586Z,1007.55
2018-01-10T04:27:59.597Z,1007.53
2018-01-10T04:28:59.610Z,1007.57
2018-01-10T04:29:59.625Z,1007.58
2018-01-10T04:30:59.640Z,1007.56
2018-01-10T04:31:59.644Z,1007.51
2018-01-10T04:32:59.663Z,1007.55
2018-01-10T04:33:59.673Z,1007.55
2018-01-10T04:34:59.681Z,1007.55
2018-01-10T04:35:59.716Z,1007.55
2018-01-10T04:36:59.712Z,1007.52
2018-01-10T04:38:00.021Z,1007.55
2018-01-10T04:38:59.741Z,1007.51
2018-01-10T04:39:59.751Z,1007.54
2018-01-10T04:40:59.773Z,1007.53
2018-01-10T04:41:59.781Z,1007.52
2018-01-10T04:42:59.790Z,1007.51
2018-01-10T04:43:59.805Z,1007.53
2018-01-10T04:44:59.820Z,1007.49
2018-01-10T04:45:59.829Z,1007.49
2018-01-10T04:46:59.837Z,1007.47
2018-01-10T04:47:59.866Z,1007.47
2018-01-10T04:48:59.869Z,1007.50
2018-01-10T04:49:59.878Z,1007.49
2018-01-10T04:50:59.895Z,1007.46
2018-01-10T04:51:59.915Z,1007.51
2018-01-10T04:52:59.917Z,1007.53
2018-01-10T04:53:59.963Z,1007.55
2018-01-10T04:54:59.954Z,1007.55
2018-01-10T04:55:59.958Z,1007.59
2018-01-10T04:56:59.971Z,1007.62
2018-01-10T04:57:59.987Z,1007.57
2018-01-10T04:59:00.002Z,1007.59
2018-01-10T05:00:00.014Z,1007.53
2018-01-10T05:01:00.028Z,1007.55
2018-01-10T05:02:00.051Z,1007.52
2018-01-10T05:03:00.055Z,1007.55
2018-01-10T05:04:00.065Z,1007.57
2018-01-10T05:05:00.081Z,1007.55
2018-01-10T05:06:00.083Z,1007.57
2018-01-10T05:07:00.094Z,1007.61
2018-01-10T05:08:00.113Z,1007.60
2018-01-10T05:09:00.121Z,1007.63
2018-01-10T05:10:00.135Z,1007.60
2018-01-10T05:11:00.151Z,1007.61
2018-01-10T05:12:00.167Z,1007.56
2018-01-10T05:13:00.176Z,1007.55
2018-01-10T05:14:00.197Z,1007.60
2018-01-10T05:15:00.200Z,1007.62
2018-01-10T05:16:00.216Z,1007.59
2018-01-10T05:17:00.249Z,1007.56
2018-01-10T05:18:00.539Z,1007.55
2018-01-10T05:19:00.248Z,1007.52
2018-01-10T05:20:00.313Z,1007.52
2018-01-10T05:21:00.289Z,1007.54
2018-01-10T05:22:00.294Z,1007.53
2018-01-10T05:23:00.316Z,1007.51
2018-01-10T05:24:00.317Z,1007.46
2018-01-10T05:25:00.326Z,1007.45
2018-01-10T05:26:00.348Z,1007.48
2018-01-10T05:27:00.356Z,1007.49
2018-01-10T05:28:00.364Z,1007.43
2018-01-10T05:29:00.374Z,1007.45
2018-01-10T05:30:00.395Z,1007.50
2018-01-10T05:31:00.404Z,1007.50
2018-01-10T05:32:00.416Z,1007.52
2018-01-10T05:33:00.741Z,1007.44
2018-01-10T05:34:00.451Z,1007.47
2018-01-10T05:35:00.463Z,1007.41
2018-01-10T05:36:00.475Z,1007.42
2018-01-10T05:37:00.484Z,1007.41
2018-01-10T05:38:00.494Z,1007.45
2018-01-10T05:39:00.513Z,1007.38
2018-01-10T05:40:00.521Z,1007.38
2018-01-10T05:41:00.537Z,1007.38
2018-01-10T05:42:00.544Z,1007.36
2018-01-10T05:43:00.860Z,1007.37
2018-01-10T05:44:00.569Z,1007.35
2018-01-10T05:45:00.578Z,1007.36
2018-01-10T05:46:00.606Z,1007.33
2018-01-10T05:47:00.615Z,1007.30
2018-01-10T05:48:00.618Z,1007.30
2018-01-10T05:49:00.647Z,1007.29
2018-01-10T05:50:00.648Z,1007.29
2018-01-10T05:51:00.657Z,1007.27
2018-01-10T05:52:00.686Z,1007.32
2018-01-10T05:53:00.687Z,1007.36
2018-01-10T05:54:00.697Z,1007.36
2018-01-10T05:55:00.720Z,1007.39
2018-01-10T05:56:00.733Z,1007.40
2018-01-10T05:57:00.742Z,1007.46
2018-01-10T05:58:00.750Z,1007.48
2018-01-10T05:59:00.766Z,1007.52
2018-01-10T06:00:00.782Z,1007.50
2018-01-10T06:01:00.791Z,1007.46
2018-01-10T06:02:00.805Z,1007.50
2018-01-10T06:03:01.122Z,1007.45
2018-01-10T06:04:00.823Z,1007.37
2018-01-10T06:05:00.831Z,1007.37
2018-01-10T06:06:00.858Z,1007.36
2018-01-10T06:07:00.863Z,1007.37
2018-01-10T06:08:00.871Z,1007.37
2018-01-10T06:09:00.898Z,1007.41
2018-01-10T06:10:00.908Z,1007.43
2018-01-10T06:11:00.911Z,1007.41
2018-01-10T06:12:00.931Z,1007.43
2018-01-10T06:13:00.942Z,1007.40
2018-01-10T06:14:00.948Z,1007.38
2018-01-10T06:15:00.958Z,1007.37
2018-01-10T06:16:00.985Z,1007.38
2018-01-10T06:17:00.988Z,1007.39
2018-01-10T06:18:01.004Z,1007.36
2018-01-10T06:19:01.007Z,1007.45
2018-01-10T06:20:01.034Z,1007.44
2018-01-10T06:21:01.037Z,1007.43
2018-01-10T06:22:01.045Z,1007.47
2018-01-10T06:23:01.066Z,1007.52
2018-01-10T06:24:01.077Z,1007.53
2018-01-10T06:25:01.091Z,1007.57
2018-01-10T06:26:01.105Z,1007.69
2018-01-10T06:27:01.115Z,1007.71
2018-01-10T06:28:01.129Z,1007.79
2018-01-10T06:29:01.140Z,1007.79
2018-01-10T06:30:01.154Z,1007.77
2018-01-10T06:31:01.164Z,1007.74
2018-01-10T06:32:01.178Z,1007.67
2018-01-10T06:33:01.189Z,1007.69
2018-01-10T06:34:01.214Z,1007.67
2018-01-10T06:35:01.212Z,1007.65
2018-01-10T06:36:01.226Z,1007.60
2018-01-10T06:37:01.240Z,1007.62
2018-01-10T06:38:01.558Z,1007.65
2018-01-10T06:39:01.278Z,1007.66
2018-01-10T06:40:01.279Z,1007.67
2018-01-10T06:41:01.289Z,1007.65
2018-01-10T06:42:01.298Z,1007.67
2018-01-10T06:43:01.314Z,1007.69
2018-01-10T06:44:01.328Z,1007.74
2018-01-10T06:45:01.337Z,1007.80
2018-01-10T06:46:01.354Z,1007.89
2018-01-10T06:47:01.394Z,1007.91
2018-01-10T06:48:01.383Z,1007.90
2018-01-10T06:49:01.385Z,1007.94
2018-01-10T06:50:01.395Z,1007.89
2018-01-10T06:51:01.415Z,1007.91
2018-01-10T06:52:01.433Z,1007.89
2018-01-10T06:53:01.439Z,1007.86
2018-01-10T06:54:01.449Z,1007.91
2018-01-10T06:55:01.464Z,1007.93
2018-01-10T06:56:01.472Z,1007.97
2018-01-10T06:57:01.483Z,1008.04
2018-01-10T06:58:01.497Z,1008.06
2018-01-10T06:59:01.513Z,1008.02
2018-01-10T07:00:01.520Z,1007.97
2018-01-10T07:01:01.529Z,1007.94
2018-01-10T07:02:01.551Z,1007.92
2018-01-10T07:03:01.560Z,1007.85
2018-01-10T07:04:01.575Z,1007.85
2018-01-10T07:05:01.580Z,1007.84
2018-01-10T07:06:01.606Z,1007.86
2018-01-10T07:07:01.607Z,1007.87
2018-01-10T07:08:01.624Z,1007.85
2018-01-10T07:09:01.626Z,1007.91
2018-01-10T07:10:01.653Z,1007.87
2018-01-10T07:11:01.663Z,1007.85
2018-01-10T07:12:01.665Z,1007.81
2018-01-10T07:13:01.674Z,1007.78
2018-01-10T07:14:01.695Z,1007.78
2018-01-10T07:15:01.711Z,1007.80
2018-01-10T07:16:01.713Z,1007.79
2018-01-10T07:17:01.723Z,1007.81
2018-01-10T07:18:01.756Z,1007.77
2018-01-10T07:19:01.758Z,1007.79
2018-01-10T07:20:01.763Z,1007.79
2018-01-10T07:21:01.789Z,1007.75
2018-01-10T07:22:01.799Z,1007.74
2018-01-10T07:23:01.806Z,1007.69
2018-01-10T07:24:01.809Z,1007.62
2018-01-10T07:25:01.831Z,1007.67
2018-01-10T07:26:01.846Z,1007.67
2018-01-10T07:27:01.849Z,1007.66
2018-01-10T07:28:01.870Z,1007.72
2018-01-10T07:29:01.887Z,1007.70
2018-01-10T07:30:01.937Z,1007.69
2018-01-10T07:31:01.902Z,1007.65
2018-01-10T07:32:01.918Z,1007.61
2018-01-10T07:33:01.927Z,1007.62
2018-01-10T07:34:01.935Z,1007.60
2018-01-10T07:35:01.964Z,1007.66
2018-01-10T07:36:01.965Z,1007.68
2018-01-10T07:37:01.974Z,1007.71
2018-01-10T07:38:01.990Z,1007.67
2018-01-10T07:39:02.005Z,1007.73
2018-01-10T07:40:02.014Z,1007.74
2018-01-10T07:41:02.029Z,1007.78
2018-01-10T07:42:02.033Z,1007.78
2018-01-10T07:43:02.062Z,1007.80
2018-01-10T07:44:02.063Z,1007.87
2018-01-10T07:45:02.070Z,1007.88
2018-01-10T07:46:02.092Z,1007.88
2018-01-10T07:47:02.101Z,1007.83
2018-01-10T07:48:02.111Z,1007.79
2018-01-10T07:49:02.120Z,1007.78
2018-01-10T07:50:02.141Z,1007.82
2018-01-10T07:51:02.151Z,1007.78
2018-01-10T07:52:02.165Z,1007.80
2018-01-10T07:53:02.181Z,1007.78
2018-01-10T07:54:02.195Z,1007.77
2018-01-10T07:55:02.198Z,1007.80
2018-01-10T07:56:02.213Z,1007.79
2018-01-10T07:57:02.227Z,1007.78
2018-01-10T07:58:02.244Z,1007.71
2018-01-10T07:59:02.251Z,1007.73
2018-01-10T08:00:02.274Z,1007.76
2018-01-10T08:01:02.276Z,1007.83
2018-01-10T08:02:02.290Z,1007.83
2018-01-10T08:03:02.293Z,1007.87
2018-01-10T08:04:02.322Z,1007.89
2018-01-10T08:05:02.336Z,1007.90
2018-01-10T08:06:02.340Z,1007.91
2018-01-10T08:07:02.343Z,1007.88
2018-01-10T08:08:02.370Z,1007.91
2018-01-10T08:09:02.372Z,1007.95
2018-01-10T08:10:02.381Z,1007.93
2018-01-10T08:11:02.402Z,1007.94
2018-01-10T08:12:02.418Z,1007.97
2018-01-10T08:13:02.438Z,1007.96
2018-01-10T08:14:02.428Z,1007.95
2018-01-10T08:15:02.451Z,1007.93
2018-01-10T08:16:02.465Z,1007.93
2018-01-10T08:17:02.467Z,1007.91
2018-01-10T08:18:02.497Z,1007.84
2018-01-10T08:19:02.505Z,1007.82
2018-01-10T08:20:02.514Z,1007.87
2018-01-10T08:21:02.522Z,1007.88
2018-01-10T08:22:02.538Z,1007.91
2018-01-10T08:23:02.554Z,1007.93
2018-01-10T08:24:02.556Z,1007.94
2018-01-10T08:25:02.566Z,1007.92
2018-01-10T08:26:02.592Z,1007.97
2018-01-10T08:27:02.601Z,1007.92
2018-01-10T08:28:02.608Z,1007.89
2018-01-10T08:29:02.626Z,1007.90
2018-01-10T08:30:02.633Z,1007.91
2018-01-10T08:31:02.643Z,1007.87
2018-01-10T08:32:02.652Z,1007.93
2018-01-10T08:33:02.674Z,1007.93
2018-01-10T08:34:02.682Z,1007.98
2018-01-10T08:35:02.690Z,1008.02
2018-01-10T08:36:02.712Z,1008.01
2018-01-10T08:37:02.727Z,1007.95
2018-01-10T08:38:02.735Z,1007.98
2018-01-10T08:39:02.739Z,1007.95
2018-01-10T08:40:02.790Z,1007.90
2018-01-10T08:41:02.776Z,1007.88
2018-01-10T08:42:02.778Z,1007.86
2018-01-10T08:43:02.799Z,1007.90
2018-01-10T08:44:02.824Z,1007.92
2018-01-10T08:45:02.816Z,1007.91
2018-01-10T08:46:02.833Z,1007.89
2018-01-10T08:47:02.846Z,1007.95
2018-01-10T08:48:02.856Z,1007.99
2018-01-10T08:49:02.864Z,1008.05
2018-01-10T08:50:02.901Z,1008.09
2018-01-10T08:51:02.900Z,1008.12
2018-01-10T08:52:02.956Z,1008.15
2018-01-10T08:53:02.914Z,1008.19
2018-01-10T08:54:02.936Z,1008.22
2018-01-10T08:55:02.959Z,1008.24
2018-01-10T08:56:02.960Z,1008.24
2018-01-10T08:57:02.981Z,1008.24
2018-01-10T08:58:02.989Z,1008.22
2018-01-10T08:59:02.998Z,1008.24
2018-01-10T09:00:03.013Z,1008.22
2018-01-10T09:01:03.029Z,1008.27
2018-01-10T09:02:03.030Z,1008.26
2018-01-10T09:03:03.040Z,1008.21
2018-01-10T09:04:03.060Z,1008.17
2018-01-10T09:05:03.077Z,1008.18
2018-01-10T09:06:03.078Z,1008.15
2018-01-10T09:07:03.100Z,1008.16
2018-01-10T09:08:03.109Z,1008.12
2018-01-10T09:09:03.117Z,1008.12
2018-01-10T09:10:03.148Z,1008.17
2018-01-10T09:11:03.155Z,1008.14
2018-01-10T09:12:03.164Z,1008.11
2018-01-10T09:13:03.179Z,1008.10
2018-01-10T09:14:03.194Z,1008.12
2018-01-10T09:15:03.205Z,1008.17
2018-01-10T09:16:03.217Z,1008.21
2018-01-10T09:17:03.236Z,1008.19
2018-01-10T09:18:03.234Z,1008.18
2018-01-10T09:19:03.264Z,1008.16
2018-01-10T09:20:03.267Z,1008.17
2018-01-10T09:21:03.274Z,1008.21
2018-01-10T09:22:03.297Z,1008.25
2018-01-10T09:23:03.305Z,1008.30
2018-01-10T09:24:03.321Z,1008.32
2018-01-10T09:25:03.335Z,1008.29
2018-01-10T09:26:03.344Z,1008.33
2018-01-10T09:27:03.366Z,1008.33
2018-01-10T09:28:03.374Z,1008.27
2018-01-10T09:29:03.384Z,1008.24
2018-01-10T09:30:03.392Z,1008.25
2018-01-10T09:31:03.426Z,1008.27
2018-01-10T09:32:03.430Z,1008.28
2018-01-10T09:33:03.438Z,1008.30
2018-01-10T09:34:03.459Z,1008.29
2018-01-10T09:35:03.463Z,1008.34
2018-01-10T09:36:03.482Z,1008.36
2018-01-10T09:37:03.495Z,1008.39
2018-01-10T09:38:03.508Z,1008.39
2018-01-10T09:39:03.532Z,1008.39
2018-01-10T09:40:03.534Z,1008.34
2018-01-10T09:41:03.545Z,1008.32
2018-01-10T09:42:03.575Z,1008.25
2018-01-10T09:43:03.578Z,1008.25
2018-01-10T09:44:03.599Z,1008.25
2018-01-10T09:45:03.601Z,1008.20
2018-01-10T09:46:03.609Z,1008.21
2018-01-10T09:47:03.630Z,1008.27
2018-01-10T09:48:03.648Z,1008.26
2018-01-10T09:49:03.649Z,1008.28
2018-01-10T09:50:03.670Z,1008.23
2018-01-10T09:51:03.680Z,1008.30
2018-01-10T09:52:03.710Z,1008.26
2018-01-10T09:53:03.710Z,1008.22
2018-01-10T09:54:03.720Z,1008.27
2018-01-10T09:55:03.747Z,1008.28
2018-01-10T09:56:03.755Z,1008.25
2018-01-10T09:57:03.772Z,1008.25
2018-01-10T09:58:03.784Z,1008.24
2018-01-10T09:59:03.802Z,1008.24
2018-01-10T10:00:03.816Z,1008.26
2018-01-10T10:01:03.819Z,1008.28
2018-01-10T10:02:03.840Z,1008.26
2018-01-10T10:03:03.854Z,1008.26
2018-01-10T10:04:03.869Z,1008.30
2018-01-10T10:05:03.886Z,1008.27
2018-01-10T10:06:03.894Z,1008.27
2018-01-10T10:07:03.916Z,1008.24
2018-01-10T10:08:03.933Z,1008.20
2018-01-10T10:09:03.945Z,1008.19
2018-01-10T10:10:03.948Z,1008.08
2018-01-10T10:11:03.960Z,1008.13
2018-01-10T10:12:03.985Z,1008.18
2018-01-10T10:13:03.987Z,1008.18
2018-01-10T10:14:04.008Z,1008.15
2018-01-10T10:15:04.025Z,1008.10
2018-01-10T10:16:04.028Z,1008.14
2018-01-10T10:17:04.047Z,1008.11
2018-01-10T10:18:04.064Z,1008.13
2018-01-10T10:19:04.086Z,1008.10
2018-01-10T10:20:04.094Z,1008.08
2018-01-10T10:21:04.122Z,1008.15
2018-01-10T10:22:04.117Z,1008.14
2018-01-10T10:23:04.127Z,1008.15
2018-01-10T10:24:04.154Z,1008.14
2018-01-10T10:25:04.156Z,1008.15
2018-01-10T10:26:04.178Z,1008.11
2018-01-10T10:27:04.188Z,1008.09
2018-01-10T10:28:04.209Z,1007.99
2018-01-10T10:29:04.219Z,1008.00
2018-01-10T10:30:04.235Z,1007.85
2018-01-10T10:31:04.253Z,1007.81
2018-01-10T10:32:04.257Z,1007.75
2018-01-10T10:33:04.331Z,1007.67
2018-01-10T10:34:04.287Z,1007.69
2018-01-10T10:35:04.308Z,1007.66
2018-01-10T10:36:04.324Z,1007.64
2018-01-10T10:37:04.345Z,1007.62
2018-01-10T10:38:04.348Z,1007.57
2018-01-10T10:39:04.369Z,1007.53
2018-01-10T10:40:04.379Z,1007.50
2018-01-10T10:41:04.388Z,1007.51
2018-01-10T10:42:04.414Z,1007.54
2018-01-10T10:43:04.429Z,1007.52
2018-01-10T10:44:04.444Z,1007.49
2018-01-10T10:45:04.446Z,1007.48
2018-01-10T10:46:04.469Z,1007.45
2018-01-10T10:47:04.483Z,1007.39
2018-01-10T10:48:04.499Z,1007.36
2018-01-10T10:49:04.507Z,1007.34
2018-01-10T10:50:04.536Z,1007.37
2018-01-10T10:51:04.538Z,1007.37
2018-01-10T10:52:04.559Z,1007.39
2018-01-10T10:53:04.576Z,1007.41
2018-01-10T10:54:04.589Z,1007.40
2018-01-10T10:55:04.598Z,1007.40
2018-01-10T10:56:04.620Z,1007.38
2018-01-10T10:57:04.636Z,1007.40
2018-01-10T10:58:04.650Z,1007.44
2018-01-10T10:59:04.669Z,1007.42
2018-01-10T11:00:04.677Z,1007.41
2018-01-10T11:01:04.690Z,1007.40
2018-01-10T11:02:04.699Z,1007.43
2018-01-10T11:03:04.727Z,1007.35
2018-01-10T11:04:04.732Z,1007.34
2018-01-10T11:05:04.762Z,1007.38
2018-01-10T11:06:04.765Z,1007.45
2018-01-10T11:07:04.780Z,1007.46
2018-01-10T11:08:04.796Z,1007.45
2018-01-10T11:09:04.811Z,1007.42
2018-01-10T11:10:04.826Z,1007.40
2018-01-10T11:11:04.847Z,1007.34
2018-01-10T11:12:04.850Z,1007.30
2018-01-10T11:13:04.880Z,1007.30
2018-01-10T11:14:04.888Z,1007.30
2018-01-10T11:15:04.902Z,1007.33
2018-01-10T11:16:04.911Z,1007.29
2018-01-10T11:17:04.931Z,1007.29
2018-01-10T11:18:04.941Z,1007.24
2018-01-10T11:19:04.962Z,1007.24
2018-01-10T11:20:04.972Z,1007.25
2018-01-10T11:21:04.992Z,1007.24
2018-01-10T11:22:05.007Z,1007.25
2018-01-10T11:23:05.029Z,1007.20
2018-01-10T11:24:05.037Z,1007.21
2018-01-10T11:25:05.061Z,1007.21
2018-01-10T11:26:05.063Z,1007.26
2018-01-10T11:27:05.102Z,1007.31
2018-01-10T11:28:05.100Z,1007.32
2018-01-10T11:29:05.101Z,1007.31
2018-01-10T11:30:05.129Z,1007.27
2018-01-10T11:31:05.132Z,1007.30
2018-01-10T11:32:05.160Z,1007.27
2018-01-10T11:33:05.168Z,1007.31
2018-01-10T11:34:05.186Z,1007.28
2018-01-10T11:35:05.198Z,1007.26
2018-01-10T11:36:05.220Z,1007.24
2018-01-10T11:37:05.222Z,1007.29
2018-01-10T11:38:05.253Z,1007.29
2018-01-10T11:39:05.259Z,1007.28
2018-01-10T11:40:05.275Z,1007.27
2018-01-10T11:41:05.283Z,1007.27
2018-01-10T11:42:05.305Z,1007.32
2018-01-10T11:43:05.314Z,1007.31
2018-01-10T11:44:05.334Z,1007.32
2018-01-10T11:45:05.348Z,1007.25
2018-01-10T11:46:05.364Z,1007.24
2018-01-10T11:47:05.372Z,1007.20
2018-01-10T11:48:05.395Z,1007.17
2018-01-10T11:49:05.412Z,1007.20
2018-01-10T11:50:05.433Z,1007.16
2018-01-10T11:51:05.446Z,1007.17
2018-01-10T11:52:05.463Z,1007.14
2018-01-10T11:53:05.465Z,1007.10
2018-01-10T11:54:05.482Z,1007.15
2018-01-10T11:55:05.499Z,1007.14
2018-01-10T11:56:05.505Z,1007.14
2018-01-10T11:57:05.525Z,1007.14
2018-01-10T11:58:05.533Z,1007.16
2018-01-10T11:59:05.556Z,1007.18
2018-01-10T12:00:05.568Z,1007.18
2018-01-10T12:01:05.586Z,1007.24
2018-01-10T12:02:05.596Z,1007.22
2018-01-10T12:03:05.621Z,1007.27
2018-01-10T12:04:05.633Z,1007.27
2018-01-10T12:05:05.646Z,1007.28
2018-01-10T12:06:05.654Z,1007.32